sensor_id;sensor_type;location;lat;lon;timestamp;P1;durP1;ratioP1;P2;durP2;ratioP2
49738;SDS011;53662;50.114;8.626;2023-11-19T00:01:40;6.57;;;4.40;;
49738;SDS011;53662;50.114;8.626;2023-11-19T00:04:06;6.03;;;4.78;;
49738;SDS011;53662;50.114;8.626;2023-11-19T00:06:33;5.10;;;4.38;;
49738;SDS011;53662;50.114;8.626;2023-11-19T00:08:59;6.93;;;4.47;;
49738;SDS011;53662;50.114;8.626;2023-11-19T00:11:25;5.50;;;4.40;;
49738;SDS011;53662;50.114;8.626;2023-11-19T00:13:51;5.00;;;4.57;;
49738;SDS011;53662;50.114;8.626;2023-11-19T00:16:17;5.68;;;4.72;;
49738;SDS011;53662;50.114;8.626;2023-11-19T00:18:43;7.15;;;5.20;;
49738;SDS011;53662;50.114;8.626;2023-11-19T00:21:09;4.82;;;4.18;;
49738;SDS011;53662;50.114;8.626;2023-11-19T00:23:36;7.35;;;5.35;;
49738;SDS011;53662;50.114;8.626;2023-11-19T00:26:02;6.00;;;5.47;;
49738;SDS011;53662;50.114;8.626;2023-11-19T00:28:30;8.30;;;5.50;;
49738;SDS011;53662;50.114;8.626;2023-11-19T00:30:56;7.70;;;4.82;;
49738;SDS011;53662;50.114;8.626;2023-11-19T00:33:22;9.00;;;5.35;;
49738;SDS011;53662;50.114;8.626;2023-11-19T00:35:49;8.90;;;4.55;;
49738;SDS011;53662;50.114;8.626;2023-11-19T00:38:15;7.10;;;5.53;;
49738;SDS011;53662;50.114;8.626;2023-11-19T00:40:41;5.38;;;4.85;;
49738;SDS011;53662;50.114;8.626;2023-11-19T00:43:07;7.90;;;5.38;;
49738;SDS011;53662;50.114;8.626;2023-11-19T00:45:33;6.28;;;5.40;;
49738;SDS011;53662;50.114;8.626;2023-11-19T00:47:59;9.20;;;5.82;;
49738;SDS011;53662;50.114;8.626;2023-11-19T00:50:25;10.32;;;6.20;;
49738;SDS011;53662;50.114;8.626;2023-11-19T00:52:51;7.80;;;5.82;;
49738;SDS011;53662;50.114;8.626;2023-11-19T00:55:17;11.82;;;6.40;;
49738;SDS011;53662;50.114;8.626;2023-11-19T00:57:43;8.50;;;6.22;;
49738;SDS011;53662;50.114;8.626;2023-11-19T01:00:09;8.57;;;6.00;;
49738;SDS011;53662;50.114;8.626;2023-11-19T01:02:45;8.50;;;6.88;;
49738;SDS011;53662;50.114;8.626;2023-11-19T01:05:10;6.38;;;5.78;;
49738;SDS011;53662;50.114;8.626;2023-11-19T01:07:39;10.32;;;6.10;;
49738;SDS011;53662;50.114;8.626;2023-11-19T01:10:05;8.90;;;6.45;;
49738;SDS011;53662;50.114;8.626;2023-11-19T01:12:32;6.68;;;6.07;;
49738;SDS011;53662;50.114;8.626;2023-11-19T01:14:58;10.20;;;6.13;;
49738;SDS011;53662;50.114;8.626;2023-11-19T01:17:24;9.07;;;5.85;;
49738;SDS011;53662;50.114;8.626;2023-11-19T01:19:50;7.43;;;5.90;;
49738;SDS011;53662;50.114;8.626;2023-11-19T01:22:16;6.03;;;5.38;;
49738;SDS011;53662;50.114;8.626;2023-11-19T01:24:42;12.98;;;6.22;;
49738;SDS011;53662;50.114;8.626;2023-11-19T01:27:08;6.85;;;6.18;;
49738;SDS011;53662;50.114;8.626;2023-11-19T01:29:34;6.50;;;5.90;;
49738;SDS011;53662;50.114;8.626;2023-11-19T01:32:00;6.22;;;5.63;;
49738;SDS011;53662;50.114;8.626;2023-11-19T01:34:25;7.88;;;5.88;;
49738;SDS011;53662;50.114;8.626;2023-11-19T01:36:51;11.65;;;6.30;;
49738;SDS011;53662;50.114;8.626;2023-11-19T01:39:17;7.97;;;5.82;;
49738;SDS011;53662;50.114;8.626;2023-11-19T01:41:45;6.82;;;6.15;;
49738;SDS011;53662;50.114;8.626;2023-11-19T01:44:10;5.95;;;5.35;;
49738;SDS011;53662;50.114;8.626;2023-11-19T01:46:43;6.75;;;6.03;;
49738;SDS011;53662;50.114;8.626;2023-11-19T01:49:10;6.28;;;5.28;;
49738;SDS011;53662;50.114;8.626;2023-11-19T01:51:36;9.00;;;6.50;;
49738;SDS011;53662;50.114;8.626;2023-11-19T01:54:03;6.85;;;6.15;;
49738;SDS011;53662;50.114;8.626;2023-11-19T01:56:29;7.07;;;6.03;;
49738;SDS011;53662;50.114;8.626;2023-11-19T01:58:56;5.80;;;5.38;;
49738;SDS011;53662;50.114;8.626;2023-11-19T02:01:22;7.30;;;5.22;;
49738;SDS011;53662;50.114;8.626;2023-11-19T02:03:49;6.90;;;5.75;;
49738;SDS011;53662;50.114;8.626;2023-11-19T02:06:15;6.53;;;5.65;;
49738;SDS011;53662;50.114;8.626;2023-11-19T02:08:41;6.28;;;5.45;;
49738;SDS011;53662;50.114;8.626;2023-11-19T02:11:08;4.80;;;4.35;;
49738;SDS011;53662;50.114;8.626;2023-11-19T02:13:34;6.55;;;5.30;;
49738;SDS011;53662;50.114;8.626;2023-11-19T02:16:04;5.90;;;5.40;;
49738;SDS011;53662;50.114;8.626;2023-11-19T02:18:30;5.78;;;5.25;;
49738;SDS011;53662;50.114;8.626;2023-11-19T02:20:59;5.05;;;4.53;;
49738;SDS011;53662;50.114;8.626;2023-11-19T02:23:28;5.80;;;4.90;;
49738;SDS011;53662;50.114;8.626;2023-11-19T02:25:58;6.72;;;4.65;;
49738;SDS011;53662;50.114;8.626;2023-11-19T02:28:26;5.13;;;4.35;;
49738;SDS011;53662;50.114;8.626;2023-11-19T02:30:52;6.00;;;4.90;;
49738;SDS011;53662;50.114;8.626;2023-11-19T02:33:18;6.75;;;5.28;;
49738;SDS011;53662;50.114;8.626;2023-11-19T02:35:44;4.60;;;4.18;;
49738;SDS011;53662;50.114;8.626;2023-11-19T02:38:10;4.93;;;4.43;;
49738;SDS011;53662;50.114;8.626;2023-11-19T02:40:36;5.65;;;4.53;;
49738;SDS011;53662;50.114;8.626;2023-11-19T02:43:02;4.57;;;4.18;;
49738;SDS011;53662;50.114;8.626;2023-11-19T02:45:30;4.95;;;4.53;;
49738;SDS011;53662;50.114;8.626;2023-11-19T02:47:56;4.03;;;3.72;;
49738;SDS011;53662;50.114;8.626;2023-11-19T02:50:22;5.72;;;3.95;;
49738;SDS011;53662;50.114;8.626;2023-11-19T02:52:51;4.20;;;3.60;;
49738;SDS011;53662;50.114;8.626;2023-11-19T02:55:18;4.70;;;3.83;;
49738;SDS011;53662;50.114;8.626;2023-11-19T02:57:44;4.15;;;3.85;;
49738;SDS011;53662;50.114;8.626;2023-11-19T03:00:14;3.50;;;3.30;;
49738;SDS011;53662;50.114;8.626;2023-11-19T03:02:40;4.20;;;3.38;;
49738;SDS011;53662;50.114;8.626;2023-11-19T03:05:11;4.65;;;3.70;;
49738;SDS011;53662;50.114;8.626;2023-11-19T03:07:37;5.40;;;3.22;;
49738;SDS011;53662;50.114;8.626;2023-11-19T03:10:03;5.32;;;3.45;;
49738;SDS011;53662;50.114;8.626;2023-11-19T03:12:30;3.70;;;3.45;;
49738;SDS011;53662;50.114;8.626;2023-11-19T03:14:56;4.13;;;3.53;;
49738;SDS011;53662;50.114;8.626;2023-11-19T03:17:22;3.83;;;3.42;;
49738;SDS011;53662;50.114;8.626;2023-11-19T03:19:49;3.67;;;3.35;;
49738;SDS011;53662;50.114;8.626;2023-11-19T03:22:15;7.03;;;3.60;;
49738;SDS011;53662;50.114;8.626;2023-11-19T03:24:41;6.50;;;3.13;;
49738;SDS011;53662;50.114;8.626;2023-11-19T03:27:07;2.75;;;2.55;;
49738;SDS011;53662;50.114;8.626;2023-11-19T03:29:33;3.58;;;3.38;;
49738;SDS011;53662;50.114;8.626;2023-11-19T03:31:58;3.15;;;2.78;;
49738;SDS011;53662;50.114;8.626;2023-11-19T03:34:24;4.03;;;2.85;;
49738;SDS011;53662;50.114;8.626;2023-11-19T03:36:51;3.65;;;3.38;;
49738;SDS011;53662;50.114;8.626;2023-11-19T03:39:17;8.07;;;3.55;;
49738;SDS011;53662;50.114;8.626;2023-11-19T03:41:47;3.17;;;2.95;;
49738;SDS011;53662;50.114;8.626;2023-11-19T03:44:13;4.15;;;3.75;;
49738;SDS011;53662;50.114;8.626;2023-11-19T03:46:38;3.42;;;3.13;;
49738;SDS011;53662;50.114;8.626;2023-11-19T03:49:04;4.25;;;3.42;;
49738;SDS011;53662;50.114;8.626;2023-11-19T03:51:32;3.95;;;3.65;;
49738;SDS011;53662;50.114;8.626;2023-11-19T03:53:59;3.47;;;3.28;;
49738;SDS011;53662;50.114;8.626;2023-11-19T03:56:25;3.78;;;3.42;;
49738;SDS011;53662;50.114;8.626;2023-11-19T03:58:52;4.30;;;3.58;;
49738;SDS011;53662;50.114;8.626;2023-11-19T04:01:18;3.35;;;3.15;;
49738;SDS011;53662;50.114;8.626;2023-11-19T04:03:44;3.95;;;3.58;;
49738;SDS011;53662;50.114;8.626;2023-11-19T04:06:10;5.93;;;4.22;;
49738;SDS011;53662;50.114;8.626;2023-11-19T04:08:36;3.40;;;3.20;;
49738;SDS011;53662;50.114;8.626;2023-11-19T04:11:05;3.22;;;2.92;;
49738;SDS011;53662;50.114;8.626;2023-11-19T04:13:31;3.90;;;3.40;;
49738;SDS011;53662;50.114;8.626;2023-11-19T04:15:57;3.08;;;2.75;;
49738;SDS011;53662;50.114;8.626;2023-11-19T04:18:23;2.70;;;2.60;;
49738;SDS011;53662;50.114;8.626;2023-11-19T04:20:49;2.70;;;2.60;;
49738;SDS011;53662;50.114;8.626;2023-11-19T04:23:16;3.10;;;2.40;;
49738;SDS011;53662;50.114;8.626;2023-11-19T04:25:42;2.65;;;2.47;;
49738;SDS011;53662;50.114;8.626;2023-11-19T04:28:08;2.95;;;2.25;;
49738;SDS011;53662;50.114;8.626;2023-11-19T04:30:34;3.28;;;2.38;;
49738;SDS011;53662;50.114;8.626;2023-11-19T04:33:00;2.47;;;2.30;;
49738;SDS011;53662;50.114;8.626;2023-11-19T04:35:26;4.68;;;2.40;;
49738;SDS011;53662;50.114;8.626;2023-11-19T04:37:52;2.30;;;2.17;;
49738;SDS011;53662;50.114;8.626;2023-11-19T04:40:18;2.95;;;2.65;;
49738;SDS011;53662;50.114;8.626;2023-11-19T04:42:44;2.40;;;2.00;;
49738;SDS011;53662;50.114;8.626;2023-11-19T04:45:10;3.58;;;2.15;;
49738;SDS011;53662;50.114;8.626;2023-11-19T04:47:36;2.20;;;2.10;;
49738;SDS011;53662;50.114;8.626;2023-11-19T04:50:02;2.17;;;2.08;;
49738;SDS011;53662;50.114;8.626;2023-11-19T04:52:28;2.13;;;1.92;;
49738;SDS011;53662;50.114;8.626;2023-11-19T04:54:54;2.35;;;2.15;;
49738;SDS011;53662;50.114;8.626;2023-11-19T04:57:20;2.40;;;2.30;;
49738;SDS011;53662;50.114;8.626;2023-11-19T04:59:46;3.03;;;2.45;;
49738;SDS011;53662;50.114;8.626;2023-11-19T05:02:12;3.45;;;2.28;;
49738;SDS011;53662;50.114;8.626;2023-11-19T05:04:42;2.53;;;2.28;;
49738;SDS011;53662;50.114;8.626;2023-11-19T05:07:14;2.97;;;2.63;;
49738;SDS011;53662;50.114;8.626;2023-11-19T05:09:39;2.53;;;2.42;;
49738;SDS011;53662;50.114;8.626;2023-11-19T05:12:06;2.70;;;2.47;;
49738;SDS011;53662;50.114;8.626;2023-11-19T05:14:35;2.58;;;2.38;;
49738;SDS011;53662;50.114;8.626;2023-11-19T05:17:01;2.65;;;2.55;;
49738;SDS011;53662;50.114;8.626;2023-11-19T05:19:26;2.85;;;2.60;;
49738;SDS011;53662;50.114;8.626;2023-11-19T05:21:52;3.70;;;2.50;;
49738;SDS011;53662;50.114;8.626;2023-11-19T05:24:18;3.55;;;2.78;;
49738;SDS011;53662;50.114;8.626;2023-11-19T05:26:44;2.90;;;2.70;;
49738;SDS011;53662;50.114;8.626;2023-11-19T05:29:10;3.28;;;2.17;;
49738;SDS011;53662;50.114;8.626;2023-11-19T05:31:36;3.45;;;2.38;;
49738;SDS011;53662;50.114;8.626;2023-11-19T05:34:02;2.70;;;2.30;;
49738;SDS011;53662;50.114;8.626;2023-11-19T05:36:28;2.00;;;1.90;;
49738;SDS011;53662;50.114;8.626;2023-11-19T05:38:54;2.60;;;2.40;;
49738;SDS011;53662;50.114;8.626;2023-11-19T05:41:20;4.55;;;2.55;;
49738;SDS011;53662;50.114;8.626;2023-11-19T05:43:46;2.42;;;2.33;;
49738;SDS011;53662;50.114;8.626;2023-11-19T05:46:12;3.15;;;2.40;;
49738;SDS011;53662;50.114;8.626;2023-11-19T05:48:38;3.25;;;2.55;;
49738;SDS011;53662;50.114;8.626;2023-11-19T05:51:04;3.08;;;2.83;;
49738;SDS011;53662;50.114;8.626;2023-11-19T05:53:30;3.33;;;2.70;;
49738;SDS011;53662;50.114;8.626;2023-11-19T05:55:57;2.38;;;2.05;;
49738;SDS011;53662;50.114;8.626;2023-11-19T05:58:23;3.53;;;2.47;;
49738;SDS011;53662;50.114;8.626;2023-11-19T06:00:50;2.63;;;2.42;;
49738;SDS011;53662;50.114;8.626;2023-11-19T06:03:16;3.28;;;2.83;;
49738;SDS011;53662;50.114;8.626;2023-11-19T06:05:46;3.30;;;3.08;;
49738;SDS011;53662;50.114;8.626;2023-11-19T06:08:12;2.60;;;2.42;;
49738;SDS011;53662;50.114;8.626;2023-11-19T06:10:40;3.13;;;2.70;;
49738;SDS011;53662;50.114;8.626;2023-11-19T06:13:06;3.25;;;2.95;;
49738;SDS011;53662;50.114;8.626;2023-11-19T06:15:32;3.20;;;2.70;;
49738;SDS011;53662;50.114;8.626;2023-11-19T06:17:58;2.80;;;2.58;;
49738;SDS011;53662;50.114;8.626;2023-11-19T06:20:26;2.75;;;2.40;;
49738;SDS011;53662;50.114;8.626;2023-11-19T06:22:56;2.80;;;2.70;;
49738;SDS011;53662;50.114;8.626;2023-11-19T06:25:23;4.25;;;2.60;;
49738;SDS011;53662;50.114;8.626;2023-11-19T06:27:49;4.97;;;2.45;;
49738;SDS011;53662;50.114;8.626;2023-11-19T06:30:15;2.90;;;2.53;;
49738;SDS011;53662;50.114;8.626;2023-11-19T06:32:41;2.30;;;2.20;;
49738;SDS011;53662;50.114;8.626;2023-11-19T06:35:07;2.95;;;2.75;;
49738;SDS011;53662;50.114;8.626;2023-11-19T06:37:34;3.25;;;2.20;;
49738;SDS011;53662;50.114;8.626;2023-11-19T06:40:00;3.13;;;2.50;;
49738;SDS011;53662;50.114;8.626;2023-11-19T06:42:26;4.38;;;2.30;;
49738;SDS011;53662;50.114;8.626;2023-11-19T06:44:52;2.22;;;2.13;;
49738;SDS011;53662;50.114;8.626;2023-11-19T06:47:18;3.22;;;2.33;;
49738;SDS011;53662;50.114;8.626;2023-11-19T06:49:44;2.83;;;2.60;;
49738;SDS011;53662;50.114;8.626;2023-11-19T06:52:10;2.60;;;2.40;;
49738;SDS011;53662;50.114;8.626;2023-11-19T06:54:36;4.80;;;2.53;;
49738;SDS011;53662;50.114;8.626;2023-11-19T06:57:02;2.28;;;2.08;;
49738;SDS011;53662;50.114;8.626;2023-11-19T06:59:28;3.03;;;2.83;;
49738;SDS011;53662;50.114;8.626;2023-11-19T07:01:54;2.63;;;2.45;;
49738;SDS011;53662;50.114;8.626;2023-11-19T07:04:21;4.78;;;2.75;;
49738;SDS011;53662;50.114;8.626;2023-11-19T07:06:47;3.85;;;2.92;;
49738;SDS011;53662;50.114;8.626;2023-11-19T07:09:18;3.25;;;2.65;;
49738;SDS011;53662;50.114;8.626;2023-11-19T07:11:44;3.88;;;2.78;;
49738;SDS011;53662;50.114;8.626;2023-11-19T07:14:10;2.80;;;2.60;;
49738;SDS011;53662;50.114;8.626;2023-11-19T07:16:36;3.50;;;2.40;;
49738;SDS011;53662;50.114;8.626;2023-11-19T07:19:03;4.22;;;2.63;;
49738;SDS011;53662;50.114;8.626;2023-11-19T07:21:30;3.40;;;2.65;;
49738;SDS011;53662;50.114;8.626;2023-11-19T07:23:56;2.58;;;2.42;;
49738;SDS011;53662;50.114;8.626;2023-11-19T07:26:22;3.08;;;2.85;;
49738;SDS011;53662;50.114;8.626;2023-11-19T07:28:48;3.10;;;2.78;;
49738;SDS011;53662;50.114;8.626;2023-11-19T07:31:15;5.55;;;3.08;;
49738;SDS011;53662;50.114;8.626;2023-11-19T07:33:41;3.10;;;2.90;;
49738;SDS011;53662;50.114;8.626;2023-11-19T07:36:08;3.70;;;3.40;;
49738;SDS011;53662;50.114;8.626;2023-11-19T07:38:34;2.78;;;2.67;;
49738;SDS011;53662;50.114;8.626;2023-11-19T07:41:00;3.00;;;2.78;;
49738;SDS011;53662;50.114;8.626;2023-11-19T07:43:26;3.47;;;3.17;;
49738;SDS011;53662;50.114;8.626;2023-11-19T07:45:52;3.92;;;3.55;;
49738;SDS011;53662;50.114;8.626;2023-11-19T07:48:18;4.30;;;4.00;;
49738;SDS011;53662;50.114;8.626;2023-11-19T07:50:48;4.53;;;4.05;;
49738;SDS011;53662;50.114;8.626;2023-11-19T07:53:17;5.53;;;4.80;;
49738;SDS011;53662;50.114;8.626;2023-11-19T07:55:43;6.28;;;4.30;;
49738;SDS011;53662;50.114;8.626;2023-11-19T07:58:12;4.85;;;4.53;;
49738;SDS011;53662;50.114;8.626;2023-11-19T08:00:38;3.92;;;3.65;;
49738;SDS011;53662;50.114;8.626;2023-11-19T08:03:05;4.07;;;3.85;;
49738;SDS011;53662;50.114;8.626;2023-11-19T08:05:31;3.58;;;3.38;;
49738;SDS011;53662;50.114;8.626;2023-11-19T08:07:57;3.30;;;3.17;;
49738;SDS011;53662;50.114;8.626;2023-11-19T08:10:23;3.85;;;3.65;;
49738;SDS011;53662;50.114;8.626;2023-11-19T08:12:49;3.85;;;3.65;;
49738;SDS011;53662;50.114;8.626;2023-11-19T08:15:15;4.07;;;3.83;;
49738;SDS011;53662;50.114;8.626;2023-11-19T08:17:41;5.28;;;4.00;;
49738;SDS011;53662;50.114;8.626;2023-11-19T08:20:08;4.43;;;4.13;;
49738;SDS011;53662;50.114;8.626;2023-11-19T08:22:35;7.60;;;4.45;;
49738;SDS011;53662;50.114;8.626;2023-11-19T08:25:02;5.10;;;4.57;;
49738;SDS011;53662;50.114;8.626;2023-11-19T08:27:29;5.28;;;4.32;;
49738;SDS011;53662;50.114;8.626;2023-11-19T08:29:55;5.28;;;3.90;;
49738;SDS011;53662;50.114;8.626;2023-11-19T08:32:24;4.32;;;3.38;;
49738;SDS011;53662;50.114;8.626;2023-11-19T08:34:50;3.50;;;2.95;;
49738;SDS011;53662;50.114;8.626;2023-11-19T08:37:16;5.32;;;3.42;;
49738;SDS011;53662;50.114;8.626;2023-11-19T08:39:49;3.97;;;3.67;;
49738;SDS011;53662;50.114;8.626;2023-11-19T08:42:15;4.68;;;2.78;;
49738;SDS011;53662;50.114;8.626;2023-11-19T08:44:41;2.78;;;2.58;;
49738;SDS011;53662;50.114;8.626;2023-11-19T08:47:09;7.03;;;2.80;;
49738;SDS011;53662;50.114;8.626;2023-11-19T08:49:35;6.45;;;4.00;;
49738;SDS011;53662;50.114;8.626;2023-11-19T08:52:01;3.75;;;2.80;;
49738;SDS011;53662;50.114;8.626;2023-11-19T08:54:27;3.30;;;3.00;;
49738;SDS011;53662;50.114;8.626;2023-11-19T08:56:53;9.25;;;5.90;;
49738;SDS011;53662;50.114;8.626;2023-11-19T08:59:18;3.42;;;3.13;;
49738;SDS011;53662;50.114;8.626;2023-11-19T09:01:44;3.03;;;2.83;;
49738;SDS011;53662;50.114;8.626;2023-11-19T09:04:10;3.83;;;2.70;;
49738;SDS011;53662;50.114;8.626;2023-11-19T09:06:36;3.10;;;2.90;;
49738;SDS011;53662;50.114;8.626;2023-11-19T09:09:02;3.15;;;2.95;;
49738;SDS011;53662;50.114;8.626;2023-11-19T09:11:30;5.55;;;3.70;;
49738;SDS011;53662;50.114;8.626;2023-11-19T09:13:56;3.85;;;3.65;;
49738;SDS011;53662;50.114;8.626;2023-11-19T09:16:22;3.50;;;3.28;;
49738;SDS011;53662;50.114;8.626;2023-11-19T09:18:49;6.75;;;3.28;;
49738;SDS011;53662;50.114;8.626;2023-11-19T09:21:15;3.60;;;3.33;;
49738;SDS011;53662;50.114;8.626;2023-11-19T09:23:41;6.35;;;3.33;;
49738;SDS011;53662;50.114;8.626;2023-11-19T09:26:08;6.03;;;3.15;;
49738;SDS011;53662;50.114;8.626;2023-11-19T09:28:35;4.47;;;3.80;;
49738;SDS011;53662;50.114;8.626;2023-11-19T09:31:01;3.33;;;3.00;;
49738;SDS011;53662;50.114;8.626;2023-11-19T09:33:29;3.83;;;2.97;;
49738;SDS011;53662;50.114;8.626;2023-11-19T09:35:55;3.42;;;2.55;;
49738;SDS011;53662;50.114;8.626;2023-11-19T09:38:22;2.80;;;2.58;;
49738;SDS011;53662;50.114;8.626;2023-11-19T09:40:48;4.25;;;2.95;;
49738;SDS011;53662;50.114;8.626;2023-11-19T09:43:15;4.35;;;3.05;;
49738;SDS011;53662;50.114;8.626;2023-11-19T09:45:48;3.20;;;2.95;;
49738;SDS011;53662;50.114;8.626;2023-11-19T09:48:17;3.03;;;2.83;;
49738;SDS011;53662;50.114;8.626;2023-11-19T09:50:44;9.60;;;3.72;;
49738;SDS011;53662;50.114;8.626;2023-11-19T09:53:11;6.35;;;2.75;;
49738;SDS011;53662;50.114;8.626;2023-11-19T09:55:37;5.32;;;2.95;;
49738;SDS011;53662;50.114;8.626;2023-11-19T09:58:03;3.83;;;3.28;;
49738;SDS011;53662;50.114;8.626;2023-11-19T10:00:29;5.55;;;3.20;;
49738;SDS011;53662;50.114;8.626;2023-11-19T10:02:55;6.13;;;3.10;;
49738;SDS011;53662;50.114;8.626;2023-11-19T10:05:22;9.25;;;2.80;;
49738;SDS011;53662;50.114;8.626;2023-11-19T10:07:51;4.35;;;2.33;;
49738;SDS011;53662;50.114;8.626;2023-11-19T10:10:18;2.67;;;2.30;;
49738;SDS011;53662;50.114;8.626;2023-11-19T10:12:47;3.40;;;2.13;;
49738;SDS011;53662;50.114;8.626;2023-11-19T10:15:17;7.07;;;2.45;;
49738;SDS011;53662;50.114;8.626;2023-11-19T10:17:45;3.33;;;2.20;;
49738;SDS011;53662;50.114;8.626;2023-11-19T10:20:11;5.35;;;1.88;;
49738;SDS011;53662;50.114;8.626;2023-11-19T10:22:37;4.68;;;2.00;;
49738;SDS011;53662;50.114;8.626;2023-11-19T10:25:04;9.43;;;1.98;;
49738;SDS011;53662;50.114;8.626;2023-11-19T10:27:30;10.05;;;1.98;;
49738;SDS011;53662;50.114;8.626;2023-11-19T10:29:59;5.07;;;1.70;;
49738;SDS011;53662;50.114;8.626;2023-11-19T10:32:25;7.32;;;1.60;;
49738;SDS011;53662;50.114;8.626;2023-11-19T10:34:51;8.75;;;2.92;;
49738;SDS011;53662;50.114;8.626;2023-11-19T10:37:27;7.15;;;2.45;;
49738;SDS011;53662;50.114;8.626;2023-11-19T10:39:54;3.70;;;1.60;;
49738;SDS011;53662;50.114;8.626;2023-11-19T10:42:20;9.73;;;1.60;;
49738;SDS011;53662;50.114;8.626;2023-11-19T10:44:46;6.90;;;1.75;;
49738;SDS011;53662;50.114;8.626;2023-11-19T10:47:13;2.85;;;1.30;;
49738;SDS011;53662;50.114;8.626;2023-11-19T10:49:42;3.30;;;1.60;;
49738;SDS011;53662;50.114;8.626;2023-11-19T10:52:08;7.55;;;1.83;;
49738;SDS011;53662;50.114;8.626;2023-11-19T10:54:34;7.00;;;1.80;;
49738;SDS011;53662;50.114;8.626;2023-11-19T10:57:01;11.60;;;2.00;;
49738;SDS011;53662;50.114;8.626;2023-11-19T10:59:31;12.70;;;2.25;;
49738;SDS011;53662;50.114;8.626;2023-11-19T11:01:57;6.00;;;1.67;;
49738;SDS011;53662;50.114;8.626;2023-11-19T11:04:24;10.73;;;1.98;;
49738;SDS011;53662;50.114;8.626;2023-11-19T11:06:51;9.75;;;2.33;;
49738;SDS011;53662;50.114;8.626;2023-11-19T11:09:19;6.97;;;1.92;;
49738;SDS011;53662;50.114;8.626;2023-11-19T11:11:46;12.65;;;2.63;;
49738;SDS011;53662;50.114;8.626;2023-11-19T11:14:12;7.13;;;1.90;;
49738;SDS011;53662;50.114;8.626;2023-11-19T11:16:43;6.80;;;1.80;;
49738;SDS011;53662;50.114;8.626;2023-11-19T11:19:12;9.93;;;1.65;;
49738;SDS011;53662;50.114;8.626;2023-11-19T11:21:39;11.82;;;2.20;;
49738;SDS011;53662;50.114;8.626;2023-11-19T11:24:19;4.38;;;1.35;;
49738;SDS011;53662;50.114;8.626;2023-11-19T11:29:38;10.43;;;2.03;;
49738;SDS011;53662;50.114;8.626;2023-11-19T11:32:16;8.38;;;2.28;;
49738;SDS011;53662;50.114;8.626;2023-11-19T11:37:46;12.10;;;2.70;;
49738;SDS011;53662;50.114;8.626;2023-11-19T11:40:16;8.15;;;2.05;;
49738;SDS011;53662;50.114;8.626;2023-11-19T11:42:43;16.30;;;2.85;;
49738;SDS011;53662;50.114;8.626;2023-11-19T11:45:09;15.13;;;2.03;;
49738;SDS011;53662;50.114;8.626;2023-11-19T11:50:10;14.43;;;2.53;;
49738;SDS011;53662;50.114;8.626;2023-11-19T11:55:26;11.95;;;2.85;;
49738;SDS011;53662;50.114;8.626;2023-11-19T11:57:53;16.60;;;2.35;;
49738;SDS011;53662;50.114;8.626;2023-11-19T12:00:22;9.63;;;2.17;;
49738;SDS011;53662;50.114;8.626;2023-11-19T12:02:48;11.40;;;2.30;;
49738;SDS011;53662;50.114;8.626;2023-11-19T12:05:14;9.27;;;2.10;;
49738;SDS011;53662;50.114;8.626;2023-11-19T12:07:40;11.60;;;2.67;;
49738;SDS011;53662;50.114;8.626;2023-11-19T12:10:07;12.02;;;2.25;;
49738;SDS011;53662;50.114;8.626;2023-11-19T12:12:34;21.85;;;2.80;;
49738;SDS011;53662;50.114;8.626;2023-11-19T12:15:10;4.20;;;1.20;;
49738;SDS011;53662;50.114;8.626;2023-11-19T12:17:37;17.45;;;2.45;;
49738;SDS011;53662;50.114;8.626;2023-11-19T12:20:05;7.68;;;1.83;;
49738;SDS011;53662;50.114;8.626;2023-11-19T12:22:40;7.30;;;1.20;;
49738;SDS011;53662;50.114;8.626;2023-11-19T12:25:06;7.47;;;2.25;;
49738;SDS011;53662;50.114;8.626;2023-11-19T12:27:33;7.38;;;1.90;;
49738;SDS011;53662;50.114;8.626;2023-11-19T12:30:00;9.10;;;2.38;;
49738;SDS011;53662;50.114;8.626;2023-11-19T12:32:26;12.15;;;2.72;;
49738;SDS011;53662;50.114;8.626;2023-11-19T12:34:52;12.50;;;2.85;;
49738;SDS011;53662;50.114;8.626;2023-11-19T12:37:17;8.25;;;2.40;;
49738;SDS011;53662;50.114;8.626;2023-11-19T12:39:43;13.05;;;2.63;;
49738;SDS011;53662;50.114;8.626;2023-11-19T12:42:09;6.57;;;1.80;;
49738;SDS011;53662;50.114;8.626;2023-11-19T12:44:37;9.95;;;2.30;;
49738;SDS011;53662;50.114;8.626;2023-11-19T12:47:04;7.20;;;2.10;;
49738;SDS011;53662;50.114;8.626;2023-11-19T12:49:31;6.30;;;2.05;;
49738;SDS011;53662;50.114;8.626;2023-11-19T12:51:57;11.43;;;1.58;;
49738;SDS011;53662;50.114;8.626;2023-11-19T12:54:35;8.38;;;2.28;;
49738;SDS011;53662;50.114;8.626;2023-11-19T12:57:01;6.32;;;2.33;;
49738;SDS011;53662;50.114;8.626;2023-11-19T12:59:28;8.55;;;2.25;;
49738;SDS011;53662;50.114;8.626;2023-11-19T13:02:02;8.15;;;1.98;;
49738;SDS011;53662;50.114;8.626;2023-11-19T13:04:30;13.35;;;2.30;;
49738;SDS011;53662;50.114;8.626;2023-11-19T13:06:57;7.65;;;1.73;;
49738;SDS011;53662;50.114;8.626;2023-11-19T13:09:24;7.97;;;1.65;;
49738;SDS011;53662;50.114;8.626;2023-11-19T13:11:50;10.98;;;2.15;;
49738;SDS011;53662;50.114;8.626;2023-11-19T13:14:17;10.30;;;2.47;;
49738;SDS011;53662;50.114;8.626;2023-11-19T13:16:44;9.07;;;2.13;;
49738;SDS011;53662;50.114;8.626;2023-11-19T13:19:13;7.90;;;1.73;;
49738;SDS011;53662;50.114;8.626;2023-11-19T13:21:39;4.68;;;2.08;;
49738;SDS011;53662;50.114;8.626;2023-11-19T13:24:06;5.63;;;1.73;;
49738;SDS011;53662;50.114;8.626;2023-11-19T13:26:32;8.60;;;2.03;;
49738;SDS011;53662;50.114;8.626;2023-11-19T13:28:57;4.95;;;1.92;;
49738;SDS011;53662;50.114;8.626;2023-11-19T13:31:23;6.65;;;1.45;;
49738;SDS011;53662;50.114;8.626;2023-11-19T13:33:49;7.35;;;1.98;;
49738;SDS011;53662;50.114;8.626;2023-11-19T13:36:15;10.20;;;2.20;;
49738;SDS011;53662;50.114;8.626;2023-11-19T13:38:41;16.00;;;3.05;;
49738;SDS011;53662;50.114;8.626;2023-11-19T13:41:09;6.55;;;1.52;;
49738;SDS011;53662;50.114;8.626;2023-11-19T13:43:36;8.73;;;2.08;;
49738;SDS011;53662;50.114;8.626;2023-11-19T13:46:02;7.82;;;2.30;;
49738;SDS011;53662;50.114;8.626;2023-11-19T13:48:28;9.73;;;2.50;;
49738;SDS011;53662;50.114;8.626;2023-11-19T13:50:55;6.22;;;1.80;;
49738;SDS011;53662;50.114;8.626;2023-11-19T13:53:21;9.38;;;1.80;;
49738;SDS011;53662;50.114;8.626;2023-11-19T13:55:48;8.48;;;1.90;;
49738;SDS011;53662;50.114;8.626;2023-11-19T13:58:14;7.63;;;1.90;;
49738;SDS011;53662;50.114;8.626;2023-11-19T14:00:40;13.38;;;2.00;;
49738;SDS011;53662;50.114;8.626;2023-11-19T14:03:07;9.10;;;1.67;;
49738;SDS011;53662;50.114;8.626;2023-11-19T14:05:34;9.50;;;2.10;;
49738;SDS011;53662;50.114;8.626;2023-11-19T14:08:00;9.52;;;2.22;;
49738;SDS011;53662;50.114;8.626;2023-11-19T14:10:26;11.38;;;2.63;;
49738;SDS011;53662;50.114;8.626;2023-11-19T14:12:52;16.98;;;2.80;;
49738;SDS011;53662;50.114;8.626;2023-11-19T14:15:18;13.68;;;2.58;;
49738;SDS011;53662;50.114;8.626;2023-11-19T14:17:44;9.38;;;3.22;;
49738;SDS011;53662;50.114;8.626;2023-11-19T14:20:10;4.70;;;1.77;;
49738;SDS011;53662;50.114;8.626;2023-11-19T14:22:40;31.25;;;3.28;;
49738;SDS011;53662;50.114;8.626;2023-11-19T14:25:07;9.45;;;2.28;;
49738;SDS011;53662;50.114;8.626;2023-11-19T14:27:35;6.45;;;1.65;;
49738;SDS011;53662;50.114;8.626;2023-11-19T14:30:01;12.57;;;2.25;;
49738;SDS011;53662;50.114;8.626;2023-11-19T14:32:27;9.63;;;2.20;;
49738;SDS011;53662;50.114;8.626;2023-11-19T14:34:53;8.07;;;2.25;;
49738;SDS011;53662;50.114;8.626;2023-11-19T14:37:20;11.98;;;1.92;;
49738;SDS011;53662;50.114;8.626;2023-11-19T14:39:46;6.55;;;1.85;;
49738;SDS011;53662;50.114;8.626;2023-11-19T14:42:12;7.25;;;1.80;;
49738;SDS011;53662;50.114;8.626;2023-11-19T14:44:39;10.57;;;2.05;;
49738;SDS011;53662;50.114;8.626;2023-11-19T14:47:05;7.85;;;2.63;;
49738;SDS011;53662;50.114;8.626;2023-11-19T14:49:31;6.80;;;2.10;;
49738;SDS011;53662;50.114;8.626;2023-11-19T14:51:57;10.00;;;2.35;;
49738;SDS011;53662;50.114;8.626;2023-11-19T14:54:23;7.97;;;1.63;;